Terminal Aerodrome Forecast
Issued by NWS

Home | Current Version | Previous Version | Graphics & Text | Print | Product List | Glossary On
Versions: 1 2 3 4 5 6 7 8 9 10 11 12 13 14 15
000
FTUS43 KGRB 230520
TAFRHI
TAF
KRHI 230520Z 2306/2406 06005KT P6SM VCSH SCT008 BKN015
      TEMPO 2306/2310 BKN008
     FM231000 06004KT P6SM BKN008 BKN012
     FM231300 08005KT P6SM SCT020 BKN050=

USA.gov is the U.S. government's official web portal to all federal, state and local government web resources and services.